createdAt,value
2018-09-26T00:01:00.694Z,97339.8
2018-09-26T00:02:03.122Z,97334.9
2018-09-26T00:03:05.546Z,97337.4
2018-09-26T00:04:07.703Z,97334.6
2018-09-26T00:05:10.126Z,97326.7
2018-09-26T00:06:12.562Z,97331
2018-09-26T00:07:14.993Z,97327.3
2018-09-26T00:08:17.410Z,97327.4
2018-09-26T00:09:19.842Z,97325.8
2018-09-26T00:10:22.262Z,97331.5
2018-09-26T00:11:24.696Z,97331.5
2018-09-26T00:12:27.115Z,97325.9
2018-09-26T00:13:29.555Z,97332.8
2018-09-26T00:14:32.014Z,97329.3
2018-09-26T00:15:34.464Z,97336.7
2018-09-26T00:16:36.895Z,97337
2018-09-26T00:17:39.354Z,97344
2018-09-26T00:18:41.797Z,97348.6
2018-09-26T00:19:43.924Z,97342.3
2018-09-26T00:20:46.354Z,97342.5
2018-09-26T00:21:48.783Z,97341.8
2018-09-26T00:22:51.212Z,97339.9
2018-09-26T00:23:53.637Z,97338
2018-09-26T00:24:56.065Z,97337.8
2018-09-26T00:25:58.487Z,97341
2018-09-26T00:27:00.911Z,97335
2018-09-26T00:28:03.348Z,97330.1
2018-09-26T00:29:05.776Z,97331.3
2018-09-26T00:30:08.210Z,97326.9
2018-09-26T00:31:10.646Z,97324.4
2018-09-26T00:32:13.071Z,97320.7
2018-09-26T00:33:15.546Z,97324.5
2018-09-26T00:34:17.984Z,97319.5
2018-09-26T00:35:20.101Z,97318.8
2018-09-26T00:36:22.367Z,97312.7
2018-09-26T00:37:24.947Z,97305.8
2018-09-26T00:38:27.407Z,97309.6
2018-09-26T00:39:29.541Z,97305.8
2018-09-26T00:40:31.966Z,97306.3
2018-09-26T00:41:34.395Z,97306
2018-09-26T00:42:36.822Z,97305.2
2018-09-26T00:43:38.983Z,97303.7
2018-09-26T00:44:41.418Z,97302
2018-09-26T00:45:43.866Z,97302.1
2018-09-26T00:46:46.006Z,97299.5
2018-09-26T00:47:48.136Z,97298.2
2018-09-26T00:48:50.589Z,97297.2
2018-09-26T00:49:53.014Z,97292.5
2018-09-26T00:50:55.167Z,97291.9
2018-09-26T00:51:57.587Z,97293.8
2018-09-26T00:53:00.009Z,97291.3
2018-09-26T00:54:02.431Z,97288.7
2018-09-26T00:55:04.857Z,97284.1
2018-09-26T04:20:52.723Z,97149
2018-09-26T04:21:55.159Z,97150.9
2018-09-26T04:22:57.584Z,97150.9
2018-09-26T04:24:00.018Z,97150.3
2018-09-26T04:25:02.459Z,97148
2018-09-26T04:26:04.953Z,97146.5
2018-09-26T04:27:07.706Z,97142.5
2018-09-26T04:28:10.327Z,97146.7
2018-09-26T04:29:12.613Z,97143.4
2018-09-26T04:30:15.203Z,97144
2018-09-26T04:31:17.740Z,97141
2018-09-26T04:32:19.644Z,97146.8
2018-09-26T04:33:22.556Z,97149.1
2018-09-26T04:34:24.516Z,97151.6
2018-09-26T04:35:26.954Z,97151.1
2018-09-26T04:36:29.096Z,97151.6
2018-09-26T04:37:31.525Z,97149.3
2018-09-26T04:38:34.397Z,97150.9
2018-09-26T04:39:36.365Z,97144.2
2018-09-26T04:40:38.802Z,97141.5
2018-09-26T04:41:41.238Z,97142.9
2018-09-26T04:42:43.412Z,97136.2
2018-09-26T04:43:45.305Z,97132.9
2018-09-26T04:44:47.451Z,97130.8
2018-09-26T04:45:49.622Z,97137.3
2018-09-26T04:46:51.756Z,97133.1
2018-09-26T04:47:53.918Z,97136.3
2018-09-26T04:48:56.344Z,97136.4
2018-09-26T04:49:58.774Z,97134.2
2018-09-26T04:51:01.225Z,97133.5
2018-09-26T04:52:15.349Z,97133
2018-09-26T04:53:17.778Z,97133.3
2018-09-26T04:54:20.202Z,97132.2
2018-09-26T04:55:22.638Z,97131
2018-09-26T04:56:25.070Z,97129.4
2018-09-26T04:57:26.922Z,97123.3
2018-09-26T04:58:28.804Z,97123.2
2018-09-26T04:59:30.703Z,97117.2
2018-09-26T05:00:33.168Z,97117.6
2018-09-26T05:01:35.630Z,97120.3
2018-09-26T05:02:38.081Z,97123.4
2018-09-26T05:03:40.297Z,97119.5
2018-09-26T05:04:42.723Z,97126.8
2018-09-26T05:05:44.895Z,97130.4
2018-09-26T05:06:47.078Z,97134.2
2018-09-26T05:07:49.511Z,97138.5
2018-09-26T05:08:51.796Z,97138.6
2018-09-26T05:09:54.336Z,97141.7
2018-09-26T05:10:56.232Z,97141.7
2018-09-26T05:11:58.661Z,97150.6
2018-09-26T05:13:00.806Z,97146.6
2018-09-26T05:14:02.677Z,97148
2018-09-26T05:15:04.552Z,97156.3
2018-09-26T05:16:06.997Z,97158.5
2018-09-26T05:17:09.419Z,97157
2018-09-26T05:18:11.851Z,97158.6
2018-09-26T05:19:14.280Z,97154.1
2018-09-26T05:20:16.421Z,97160.3
2018-09-26T05:21:18.844Z,97158.7
2018-09-26T05:22:21.272Z,97163.9
2018-09-26T05:23:23.427Z,97160.9
2018-09-26T05:24:25.575Z,97158.7
2018-09-26T05:25:27.445Z,97161.4
2018-09-26T05:26:29.879Z,97157.2
2018-09-26T05:27:32.069Z,97162
2018-09-26T05:28:34.501Z,97158
2018-09-26T05:29:36.935Z,97159.6
2018-09-26T05:30:39.366Z,97162
2018-09-26T05:31:41.529Z,97162.3
2018-09-26T05:32:43.966Z,97163.8
2018-09-26T05:33:46.101Z,97166.2
2018-09-26T05:34:48.535Z,97166.5
2018-09-26T05:35:50.966Z,97169
2018-09-26T05:36:53.418Z,97166.7
2018-09-26T05:37:55.938Z,97165.4
2018-09-26T05:38:58.422Z,97167.8
2018-09-26T05:40:00.898Z,97169
2018-09-26T05:41:03.725Z,97172.8
2018-09-26T05:42:06.178Z,97172.1
2018-09-26T05:43:08.034Z,97174.6
2018-09-26T05:44:10.470Z,97174.3
2018-09-26T05:45:12.901Z,97177.2
2018-09-26T05:46:15.340Z,97176.4
2018-09-26T05:47:17.762Z,97175
2018-09-26T05:48:19.368Z,97183.8
2018-09-26T05:49:21.820Z,97181.2
2018-09-26T05:50:24.245Z,97183
2018-09-26T05:51:26.667Z,97180.9
2018-09-26T05:52:28.875Z,97180.2
2018-09-26T05:53:31.705Z,97186
2018-09-26T05:54:33.577Z,97182
2018-09-26T05:55:35.470Z,97190.8
2018-09-26T05:56:37.620Z,97189.9
2018-09-26T05:57:39.783Z,97186.2
2018-09-26T05:58:42.218Z,97184.6
2018-09-26T05:59:44.676Z,97185.3
2018-09-26T06:00:46.643Z,97185.5
2018-09-26T06:01:48.785Z,97185.8
2018-09-26T06:02:50.941Z,97184.7
2018-09-26T06:03:53.177Z,97186
2018-09-26T06:04:55.675Z,97185.3
2018-09-26T06:05:57.892Z,97186.8
2018-09-26T06:07:00.331Z,97189.8
2018-09-26T06:08:02.489Z,97182.4
2018-09-26T06:09:04.976Z,97185
2018-09-26T06:10:07.136Z,97182.2
2018-09-26T06:11:09.576Z,97186.7
2018-09-26T06:12:12.013Z,97180.9
2018-09-26T06:13:14.457Z,97174.9
2018-09-26T06:14:16.643Z,97177.9
2018-09-26T06:15:19.070Z,97174.2
2018-09-26T06:16:21.233Z,97175.7
2018-09-26T06:17:23.370Z,97180.6
2018-09-26T06:18:25.799Z,97181.1
2018-09-26T06:19:28.227Z,97186.2
2018-09-26T06:20:30.135Z,97181.9
2018-09-26T06:21:32.296Z,97184.3
2018-09-26T06:22:34.465Z,97185.8
2018-09-26T06:23:36.599Z,97184.7
2018-09-26T06:24:39.230Z,97185.6
2018-09-26T06:25:41.362Z,97189.2
2018-09-26T06:26:43.500Z,97187.5
2018-09-26T06:27:45.948Z,97194.4
2018-09-26T06:28:48.379Z,97198.5
2018-09-26T06:29:50.539Z,97199.7
2018-09-26T06:30:52.964Z,97203.4
2018-09-26T06:31:55.406Z,97205.6
2018-09-26T06:32:57.843Z,97208.3
2018-09-26T06:34:00.279Z,97211.5
2018-09-26T06:35:02.947Z,97214.8
2018-09-26T06:36:05.571Z,97216.5
2018-09-26T06:37:08.003Z,97215
2018-09-26T06:38:10.134Z,97213.5
2018-09-26T06:39:12.291Z,97217.9
2018-09-26T06:40:14.444Z,97216.3
2018-09-26T06:41:16.868Z,97220.2
2018-09-26T06:42:19.004Z,97214.9
2018-09-26T06:43:21.166Z,97212.1
2018-09-26T06:44:23.596Z,97213.6
2018-09-26T06:45:25.769Z,97210.6
2018-09-26T06:46:27.934Z,97213.8
2018-09-26T06:47:30.235Z,97214
2018-09-26T06:48:32.818Z,97215.7
2018-09-26T06:49:35.248Z,97217.7
2018-09-26T06:50:37.407Z,97214.6
2018-09-26T06:51:39.895Z,97216.9
2018-09-26T06:52:42.331Z,97216.4
2018-09-26T06:53:44.498Z,97219.2
2018-09-26T06:54:46.936Z,97216.9
2018-09-26T06:55:49.378Z,97213.1
2018-09-26T06:56:51.532Z,97216.7
2018-09-26T06:57:53.695Z,97216.2
2018-09-26T06:58:56.126Z,97218
2018-09-26T06:59:58.291Z,97216.6
2018-09-26T07:01:00.738Z,97221
2018-09-26T07:02:03.163Z,97224.2
2018-09-26T07:03:05.600Z,97223
2018-09-26T07:04:08.045Z,97222
2018-09-26T07:05:10.472Z,97221.8
2018-09-26T07:06:13.238Z,97220.6
2018-09-26T07:07:15.677Z,97218.6
2018-09-26T07:08:18.108Z,97216.4
2018-09-26T07:09:20.537Z,97215.1
2018-09-26T07:10:23.016Z,97213.6
2018-09-26T07:11:25.448Z,97213.6
2018-09-26T07:12:27.906Z,97211.6
2018-09-26T07:13:30.071Z,97208.6
2018-09-26T07:14:32.505Z,97211.5
2018-09-26T07:15:34.677Z,97211.2
2018-09-26T07:16:37.099Z,97206
2018-09-26T07:17:39.526Z,97209.5
2018-09-26T07:18:41.966Z,97210.9
2018-09-26T07:19:44.125Z,97212
2018-09-26T07:20:46.553Z,97204.2
2018-09-26T07:21:48.987Z,97204.7
2018-09-26T07:22:51.495Z,97204.1
2018-09-26T07:23:54.088Z,97200.2
2018-09-26T07:24:56.554Z,97198
2018-09-26T07:25:58.990Z,97196.2
2018-09-26T07:27:01.148Z,97190.3
2018-09-26T07:28:03.587Z,97187.8
2018-09-26T07:29:06.021Z,97191.1
2018-09-26T07:30:08.178Z,97190.3
2018-09-26T07:31:10.606Z,97184.4
2018-09-26T07:32:12.362Z,97185.5
2018-09-26T07:33:14.923Z,97179.9
2018-09-26T07:34:17.368Z,97182.2
2018-09-26T07:35:19.805Z,97179.3
2018-09-26T07:36:22.274Z,97180.1
2018-09-26T07:37:24.165Z,97186.5
2018-09-26T07:38:26.357Z,97187.2
2018-09-26T07:39:28.875Z,97183.5
2018-09-26T07:40:31.306Z,97187.3
2018-09-26T07:41:33.478Z,97182.5
2018-09-26T07:42:35.912Z,97181.1
2018-09-26T07:43:37.808Z,97180.9
2018-09-26T07:44:40.234Z,97179.8
2018-09-26T07:45:42.773Z,97175.3
2018-09-26T07:46:45.333Z,97172.9
2018-09-26T07:47:46.955Z,97175.5
2018-09-26T07:48:49.122Z,97173.8
2018-09-26T07:49:51.554Z,97173.3
2018-09-26T07:50:53.993Z,97176.9
2018-09-26T07:51:56.124Z,97181.7
2018-09-26T07:52:58.394Z,97178.9
2018-09-26T07:54:00.812Z,97183
2018-09-26T07:55:02.963Z,97181.7
2018-09-26T07:56:05.138Z,97181.7
2018-09-26T07:57:07.016Z,97186.2
2018-09-26T07:58:09.459Z,97185.8
2018-09-26T07:59:11.888Z,97182.5
2018-09-26T08:00:14.495Z,97189.8
2018-09-26T08:01:16.940Z,97188.2
2018-09-26T08:02:19.376Z,97192.2
2018-09-26T08:03:21.812Z,97190.8
2018-09-26T08:04:23.966Z,97194.8
2018-09-26T08:05:26.416Z,97193.8
2018-09-26T08:06:28.850Z,97198.3
2018-09-26T08:07:31.281Z,97192.4
2018-09-26T08:08:33.438Z,97191.9
2018-09-26T08:09:35.599Z,97189.7
2018-09-26T08:10:38.042Z,97191.3
2018-09-26T08:11:40.769Z,97193.4
2018-09-26T08:12:43.287Z,97191.6
2018-09-26T08:13:45.742Z,97190
2018-09-26T08:14:48.176Z,97189.8
2018-09-26T08:15:50.338Z,97194.1
2018-09-26T08:16:52.768Z,97192.8
2018-09-26T08:17:55.208Z,97190.9
2018-09-26T08:18:57.368Z,97199
2018-09-26T08:19:59.518Z,97198.6
2018-09-26T08:21:01.670Z,97201.8
2018-09-26T08:22:04.118Z,97198.5
2018-09-26T08:23:06.551Z,97200.1
2018-09-26T08:24:09.765Z,97207
2018-09-26T08:25:12.444Z,97201.5
2018-09-26T08:26:14.876Z,97197.2
2018-09-26T08:27:17.040Z,97190.3
2018-09-26T08:28:19.462Z,97194.4
2018-09-26T08:29:21.609Z,97193.7
2018-09-26T08:30:23.530Z,97197
2018-09-26T08:31:25.708Z,97196.6
2018-09-26T08:32:28.145Z,97198.5
2018-09-26T08:33:30.298Z,97203
2018-09-26T08:34:32.740Z,97202
2018-09-26T08:35:35.169Z,97203
2018-09-26T08:36:37.600Z,97203
2018-09-26T08:37:40.056Z,97203.6
2018-09-26T08:38:42.516Z,97203.7
2018-09-26T08:39:44.947Z,97207.1
2018-09-26T08:40:47.116Z,97202.1
2018-09-26T08:41:49.245Z,97205.2
2018-09-26T08:42:51.404Z,97202.3
2018-09-26T08:43:54.663Z,97200.3
2018-09-26T08:44:57.183Z,97200.8
2018-09-26T08:45:59.612Z,97197.3
2018-09-26T08:47:02.037Z,97191.8
2018-09-26T08:48:04.463Z,97196.4
2018-09-26T08:49:06.616Z,97190.1
2018-09-26T08:50:09.059Z,97186.1
2018-09-26T08:51:10.948Z,97188.4
2018-09-26T08:52:13.389Z,97188.8
2018-09-26T08:53:15.821Z,97186.9
2018-09-26T08:54:17.980Z,97187.8
2018-09-26T08:55:20.149Z,97191.7
2018-09-26T08:56:22.569Z,97190.8
2018-09-26T08:57:24.992Z,97191.5
2018-09-26T08:58:27.417Z,97198
2018-09-26T08:59:29.851Z,97199.3
2018-09-26T09:00:32.342Z,97201.7
2018-09-26T09:01:34.771Z,97209.2
2018-09-26T09:02:36.948Z,97201.9
2018-09-26T09:03:39.977Z,97203.8
2018-09-26T09:04:42.126Z,97202.9
2018-09-26T09:05:43.980Z,97206.3
2018-09-26T09:06:46.410Z,97204.1
2018-09-26T09:07:48.855Z,97203.5
2018-09-26T09:08:51.011Z,97201.9
2018-09-26T09:09:53.156Z,97201.2
2018-09-26T09:10:55.319Z,97201.8
2018-09-26T09:11:57.475Z,97199.5
2018-09-26T09:12:59.897Z,97198.3
2018-09-26T09:14:02.347Z,97194.1
2018-09-26T09:15:04.512Z,97189.4
2018-09-26T09:16:06.945Z,97195.8
2018-09-26T09:17:09.120Z,97195.6
2018-09-26T09:18:11.548Z,97196.3
2018-09-26T09:19:13.976Z,97193
2018-09-26T09:20:16.366Z,97192.1
2018-09-26T09:21:18.979Z,97187.1
2018-09-26T09:22:21.439Z,97186.6
2018-09-26T09:23:23.866Z,97190.9
2018-09-26T09:24:26.308Z,97189.5
2018-09-26T09:25:28.450Z,97190.4
2018-09-26T09:26:30.886Z,97189.5
2018-09-26T09:27:33.603Z,97191.5
2018-09-26T09:28:36.068Z,97193.3
2018-09-26T09:29:38.510Z,97195.4
2018-09-26T09:30:40.395Z,97191.4
2018-09-26T09:31:42.848Z,97182.7
2018-09-26T09:32:44.998Z,97178.8
2018-09-26T09:33:47.432Z,97177.4
2018-09-26T09:34:49.861Z,97178
2018-09-26T09:35:52.293Z,97179.4
2018-09-26T09:36:54.437Z,97170.6
2018-09-26T09:37:56.887Z,97174.4
2018-09-26T09:38:59.039Z,97171
2018-09-26T09:40:01.478Z,97178
2018-09-26T09:41:03.911Z,97170.5
2018-09-26T09:42:06.141Z,97169.3
2018-09-26T09:43:08.606Z,97167.9
2018-09-26T09:44:11.767Z,97166.7
2018-09-26T09:45:14.290Z,97170.8
2018-09-26T09:46:16.720Z,97170.2
2018-09-26T09:47:19.152Z,97169.5
2018-09-26T09:48:21.594Z,97171.6
2018-09-26T09:49:23.757Z,97169.2
2018-09-26T09:50:26.046Z,97169.3
2018-09-26T09:51:28.394Z,97166.3
2018-09-26T09:52:30.866Z,97169.5
2018-09-26T09:53:33.299Z,97169.5
2018-09-26T09:54:35.724Z,97168.7
2018-09-26T09:55:38.174Z,97163.8
2018-09-26T09:56:40.620Z,97164.6
2018-09-26T09:57:43.037Z,97164.4
2018-09-26T09:58:45.470Z,97166.7
2018-09-26T09:59:47.914Z,97163.2
2018-09-26T10:00:50.347Z,97164
2018-09-26T10:01:52.784Z,97165.6
2018-09-26T10:02:55.739Z,97166.4
2018-09-26T10:03:58.479Z,97159.4
2018-09-26T10:05:00.926Z,97162.3
2018-09-26T10:06:03.361Z,97161.5
2018-09-26T10:07:05.540Z,97161.9
2018-09-26T10:08:08.091Z,97158.6
2018-09-26T10:09:10.517Z,97154.8
2018-09-26T10:10:12.956Z,97153.5
2018-09-26T10:11:15.394Z,97157.6
2018-09-26T10:12:17.825Z,97154.7
2018-09-26T10:13:20.267Z,97154.1
2018-09-26T10:14:23.160Z,97157.6
2018-09-26T10:15:25.631Z,97163.7
2018-09-26T10:16:28.112Z,97163
2018-09-26T10:17:30.732Z,97163.8
2018-09-26T10:18:33.290Z,97165.9
2018-09-26T10:19:35.744Z,97165.2
2018-09-26T10:20:38.195Z,97164.4
2018-09-26T10:21:40.630Z,97165.3
2018-09-26T10:22:42.792Z,97165.1
2018-09-26T10:23:45.229Z,97166.7
2018-09-26T10:24:47.108Z,97169.5
2018-09-26T10:25:49.550Z,97171.9
2018-09-26T10:26:51.710Z,97170.6
2018-09-26T10:27:54.141Z,97166
2018-09-26T10:28:56.684Z,97165
2018-09-26T10:29:59.109Z,97168.4
2018-09-26T10:31:01.258Z,97166.3
2018-09-26T10:32:03.706Z,97163.4
2018-09-26T10:33:06.167Z,97161.3
2018-09-26T10:34:08.600Z,97158.5
2018-09-26T10:35:11.047Z,97158.9
2018-09-26T10:36:13.179Z,97160.1
2018-09-26T10:37:15.610Z,97155.6
2018-09-26T10:38:18.256Z,97161.4
2018-09-26T10:39:20.470Z,97165.5
2018-09-26T10:40:22.683Z,97164.4
2018-09-26T10:41:25.110Z,97166.1
2018-09-26T10:42:27.287Z,97168.1
2018-09-26T10:43:29.716Z,97166.9
2018-09-26T10:44:31.875Z,97167.5
2018-09-26T10:45:34.326Z,97169.6
2018-09-26T10:46:36.624Z,97175.2
2018-09-26T10:47:39.043Z,97172.6
2018-09-26T10:48:41.191Z,97170.3
2018-09-26T10:49:43.641Z,97167.4
2018-09-26T10:50:46.056Z,97169.1
2018-09-26T10:51:48.487Z,97169.6
2018-09-26T10:52:50.928Z,97161.4
2018-09-26T10:53:53.358Z,97165.7
2018-09-26T10:54:55.789Z,97164.3
2018-09-26T10:55:58.219Z,97159.5
2018-09-26T10:57:00.696Z,97161.1
2018-09-26T10:58:03.131Z,97159.5
2018-09-26T10:59:05.281Z,97158.8
2018-09-26T11:00:07.729Z,97166
2018-09-26T11:01:10.159Z,97165.1
2018-09-26T11:02:13.253Z,97160.6
2018-09-26T11:03:15.479Z,97164.4
2018-09-26T11:04:17.486Z,97165.2
2018-09-26T11:05:20.114Z,97168
2018-09-26T11:06:22.277Z,97164.5
2018-09-26T11:07:24.723Z,97167.2
2018-09-26T11:08:27.600Z,97162.3
2018-09-26T11:09:29.727Z,97167.8
2018-09-26T11:10:32.187Z,97166.8
2018-09-26T11:11:34.619Z,97158.6
2018-09-26T11:12:37.374Z,97163.6
2018-09-26T11:13:39.953Z,97165.2
2018-09-26T11:14:42.380Z,97164.7
2018-09-26T11:15:44.804Z,97161.1
2018-09-26T11:16:47.231Z,97165
2018-09-26T11:17:49.391Z,97163.7
2018-09-26T11:18:52.120Z,97165.1
2018-09-26T11:19:54.408Z,97163.1
2018-09-26T11:20:56.542Z,97160.2
2018-09-26T11:21:59.011Z,97159.9
2018-09-26T11:23:01.469Z,97156.7
2018-09-26T11:24:03.945Z,97156.3
2018-09-26T11:25:06.127Z,97150.5
2018-09-26T11:26:08.848Z,97150.1
2018-09-26T11:27:11.435Z,97149.8
2018-09-26T11:28:14.083Z,97146.2
2018-09-26T11:29:16.596Z,97150.3
2018-09-26T11:30:19.031Z,97144.9
2018-09-26T11:31:21.458Z,97144.2
2018-09-26T11:32:24.282Z,97147.5
2018-09-26T11:33:27.335Z,97148.1
2018-09-26T11:34:29.979Z,97145.2
2018-09-26T11:35:32.412Z,97150
2018-09-26T11:36:34.286Z,97144
2018-09-26T11:37:36.181Z,97143.9
2018-09-26T11:38:38.602Z,97143.4
2018-09-26T11:39:41.063Z,97145.3
2018-09-26T11:40:43.493Z,97147.5
2018-09-26T11:41:45.921Z,97149.9
2018-09-26T11:42:48.363Z,97146
2018-09-26T11:43:50.518Z,97148
2018-09-26T11:44:53.254Z,97145.8
2018-09-26T11:45:55.693Z,97144.3
2018-09-26T11:46:58.128Z,97147.4
2018-09-26T11:48:00.557Z,97145.6
2018-09-26T11:49:02.998Z,97143.3
2018-09-26T11:50:05.500Z,97137.4
2018-09-26T11:51:07.929Z,97136.8
2018-09-26T11:52:10.165Z,97131.5
2018-09-26T11:53:12.662Z,97133.6
2018-09-26T11:54:15.087Z,97130.6
2018-09-26T11:55:16.997Z,97131.5
2018-09-26T11:56:19.224Z,97124.4
2018-09-26T11:57:21.735Z,97127
2018-09-26T11:58:24.678Z,97123.9
2018-09-26T11:59:27.353Z,97129.1
2018-09-26T12:00:29.519Z,97124.9
2018-09-26T12:01:31.979Z,97127.8
2018-09-26T12:02:35.322Z,97134.3
2018-09-26T12:03:37.805Z,97129.2
2018-09-26T12:04:40.251Z,97127.3
2018-09-26T12:05:42.735Z,97126
2018-09-26T12:06:45.171Z,97126.2
2018-09-26T12:07:47.325Z,97129.6
2018-09-26T12:08:49.497Z,97124.3
2018-09-26T12:09:51.383Z,97126.3
2018-09-26T12:10:53.549Z,97126.9
2018-09-26T12:11:55.707Z,97127.2
2018-09-26T12:12:57.853Z,97119.7
2018-09-26T12:14:00.392Z,97121.4
2018-09-26T12:15:02.607Z,97113.5
2018-09-26T12:16:05.224Z,97113.5
2018-09-26T12:17:07.639Z,97111.4
2018-09-26T12:18:10.162Z,97108.8
2018-09-26T12:19:12.543Z,97109
2018-09-26T12:20:15.009Z,97108.9
2018-09-26T12:21:30.049Z,97112.6
2018-09-26T12:22:24.267Z,97114.8
2018-09-26T12:23:26.717Z,97111.1
2018-09-26T12:24:28.876Z,97112
2018-09-26T12:25:31.035Z,97113.3
2018-09-26T12:26:33.468Z,97110.5
2018-09-26T12:27:35.902Z,97110.1
2018-09-26T12:28:38.059Z,97105.3
2018-09-26T12:29:40.219Z,97100.7
2018-09-26T12:30:42.646Z,97103.1
2018-09-26T12:31:45.078Z,97107.1
2018-09-26T12:32:47.255Z,97105.7
2018-09-26T12:33:49.399Z,97105
2018-09-26T12:34:51.924Z,97103
2018-09-26T12:35:54.591Z,97105.1
2018-09-26T12:36:56.726Z,97108.8
2018-09-26T12:37:58.897Z,97105.1
2018-09-26T12:39:01.337Z,97103.6
2018-09-26T12:40:03.776Z,97104.3
2018-09-26T12:41:05.659Z,97098.6
2018-09-26T12:42:08.195Z,97103.8
2018-09-26T12:43:10.709Z,97103.3
2018-09-26T12:44:13.144Z,97101.2
2018-09-26T12:45:15.026Z,97102.9
2018-09-26T12:46:17.670Z,97101.6
2018-09-26T12:47:20.343Z,97098.7
2018-09-26T12:48:22.801Z,97101.6
2018-09-26T12:49:25.309Z,97097.4
2018-09-26T12:50:27.734Z,97092.8
2018-09-26T12:51:30.180Z,97095.4
2018-09-26T12:52:32.313Z,97092.8
2018-09-26T12:53:35.039Z,97094.9
2018-09-26T12:54:37.613Z,97092.6
2018-09-26T12:55:40.057Z,97093.2
2018-09-26T12:56:42.215Z,97093.2
2018-09-26T12:57:44.390Z,97094
2018-09-26T12:58:46.828Z,97095.3
2018-09-26T12:59:49.256Z,97092
2018-09-26T13:00:51.704Z,97095
2018-09-26T13:01:53.590Z,97092.2
2018-09-26T13:02:56.036Z,97097.2
2018-09-26T13:03:58.479Z,97095.6
2018-09-26T13:05:00.909Z,97098.4
2018-09-26T13:06:03.360Z,97098.6
2018-09-26T13:07:05.835Z,97096.3
2018-09-26T13:08:08.343Z,97094.6
2018-09-26T13:09:10.786Z,97092.8
2018-09-26T13:10:13.349Z,97092.4
2018-09-26T13:11:15.903Z,97083.8
2018-09-26T13:12:18.327Z,97087.5
2018-09-26T13:13:20.880Z,97089.5
2018-09-26T13:14:23.656Z,97089.5
2018-09-26T13:15:26.191Z,97089.2
2018-09-26T13:16:28.623Z,97092.2
2018-09-26T13:17:31.048Z,97088.7
2018-09-26T13:18:33.478Z,97088.9
2018-09-26T13:19:35.926Z,97092.6
2018-09-26T13:20:38.368Z,97090.4
2018-09-26T13:21:40.540Z,97090.7
2018-09-26T13:22:42.972Z,97087.3
2018-09-26T13:23:45.410Z,97088.7
2018-09-26T13:24:47.834Z,97086.4
2018-09-26T13:25:50.308Z,97082.8
2018-09-26T13:26:52.457Z,97083.3
2018-09-26T13:27:54.888Z,97076.8
2018-09-26T13:28:57.313Z,97080.1
2018-09-26T13:29:59.742Z,97076.9
2018-09-26T13:31:02.158Z,97085
2018-09-26T13:32:04.775Z,97079.4
2018-09-26T13:33:07.216Z,97082
2018-09-26T13:34:09.835Z,97078.1
2018-09-26T13:35:11.988Z,97077.3
2018-09-26T13:36:14.274Z,97075.9
2018-09-26T13:37:16.879Z,97074.1
2018-09-26T13:38:19.628Z,97076.2
2018-09-26T13:39:21.263Z,97073.1
2018-09-26T13:40:24.249Z,97069.4
2018-09-26T13:41:26.838Z,97071.4
2018-09-26T13:42:29.478Z,97072.7
2018-09-26T13:43:31.916Z,97069.7
2018-09-26T13:44:34.358Z,97070.3
2018-09-26T13:45:36.914Z,97068.8
2018-09-26T13:46:40.255Z,97070.6
2018-09-26T13:47:42.810Z,97074.9
2018-09-26T13:48:45.250Z,97068.5
2018-09-26T13:49:47.408Z,97070.3
2018-09-26T13:50:49.834Z,97075.4
2018-09-26T13:51:52.281Z,97077.4
2018-09-26T13:52:54.433Z,97078.9
2018-09-26T13:53:57.054Z,97076.6
2018-09-26T13:54:59.553Z,97078.9
2018-09-26T13:56:01.712Z,97074.4
2018-09-26T13:57:04.169Z,97078.3
2018-09-26T13:58:06.756Z,97076.2
2018-09-26T13:59:09.262Z,97077.1
2018-09-26T14:00:11.813Z,97080.3
2018-09-26T14:01:14.336Z,97079.5
2018-09-26T14:02:17.121Z,97073.1
2018-09-26T14:03:19.744Z,97070.8
2018-09-26T14:04:22.643Z,97076.2
2018-09-26T14:05:25.288Z,97072.1
2018-09-26T14:06:27.727Z,97069.3
2018-09-26T14:07:30.193Z,97069.6
2018-09-26T14:08:32.891Z,97065.3
2018-09-26T14:09:35.418Z,97066.6
2018-09-26T14:10:38.020Z,97062.2
2018-09-26T14:11:55.305Z,97062.4
2018-09-26T14:12:57.466Z,97062
2018-09-26T14:13:59.893Z,97065.2
2018-09-26T14:15:02.332Z,97062.6
2018-09-26T14:16:04.768Z,97058.6
2018-09-26T14:17:06.991Z,97066.2
2018-09-26T14:18:09.303Z,97063.9
2018-09-26T14:19:11.458Z,97065.5
2018-09-26T14:20:13.779Z,97062.1
2018-09-26T14:21:15.965Z,97067
2018-09-26T14:22:18.746Z,97064
2018-09-26T14:23:20.687Z,97062.7
2018-09-26T14:24:23.033Z,97066
2018-09-26T14:25:25.468Z,97059.8
2018-09-26T14:26:28.195Z,97056.2
2018-09-26T14:27:30.628Z,97057.3
2018-09-26T14:28:33.074Z,97060
2018-09-26T14:29:35.527Z,97056.8
2018-09-26T14:30:39.406Z,97056.8
2018-09-26T14:31:42.167Z,97053.9
2018-09-26T14:32:44.595Z,97056.5
2018-09-26T14:33:47.371Z,97052.3
2018-09-26T14:34:49.938Z,97049.1
2018-09-26T14:35:52.068Z,97048.6
2018-09-26T14:36:54.515Z,97046.5
2018-09-26T14:37:56.960Z,97048.6
2018-09-26T14:39:00.168Z,97045.7
2018-09-26T14:40:02.308Z,97047.3
2018-09-26T14:41:04.748Z,97047.5
2018-09-26T14:42:07.188Z,97039.9
2018-09-26T14:43:09.619Z,97039.5
2018-09-26T14:44:11.868Z,97039.1
2018-09-26T14:45:14.491Z,97035.7
2018-09-26T14:46:16.731Z,97039.2
2018-09-26T14:47:19.143Z,97039.9
2018-09-26T14:48:21.479Z,97039
2018-09-26T14:49:24.371Z,97036.4
2018-09-26T14:50:26.172Z,97037.7
2018-09-26T14:51:28.057Z,97037.2
2018-09-26T14:52:30.495Z,97036
2018-09-26T14:53:32.657Z,97038.9
2018-09-26T14:54:35.083Z,97038.1
2018-09-26T14:55:36.977Z,97040.8
2018-09-26T14:56:39.414Z,97041.5
2018-09-26T14:57:41.861Z,97042.6
2018-09-26T14:58:44.308Z,97040.3
2018-09-26T14:59:46.730Z,97040.6
2018-09-26T15:00:49.156Z,97038.7
2018-09-26T15:01:51.613Z,97039.9
2018-09-26T15:02:53.503Z,97039
2018-09-26T15:03:55.933Z,97041.1
2018-09-26T15:04:58.378Z,97038.1
2018-09-26T15:06:00.829Z,97037.4
2018-09-26T15:07:03.267Z,97037.1
2018-09-26T15:08:05.768Z,97036.3
2018-09-26T15:09:08.272Z,97036.2
2018-09-26T15:10:10.820Z,97038.3
2018-09-26T15:11:13.344Z,97034
2018-09-26T15:12:16.030Z,97031.6
2018-09-26T15:13:18.407Z,97028.3
2018-09-26T15:14:21.162Z,97028
2018-09-26T15:15:23.478Z,97025.9
2018-09-26T15:16:26.010Z,97029.5
2018-09-26T15:17:28.169Z,97024.8
2018-09-26T15:18:30.606Z,97030.3
2018-09-26T15:19:33.042Z,97026.6
2018-09-26T15:20:35.865Z,97025.8
2018-09-26T15:21:38.439Z,97028.4
2018-09-26T15:22:40.867Z,97031.1
2018-09-26T15:23:43.493Z,97031.2
2018-09-26T15:24:45.940Z,97029.1
2018-09-26T15:25:48.367Z,97033.2
2018-09-26T15:26:50.808Z,97028.5
2018-09-26T15:27:53.407Z,97028.6
2018-09-26T15:28:55.584Z,97027.9
2018-09-26T15:29:57.727Z,97025.7
2018-09-26T15:31:00.165Z,97023.6
2018-09-26T15:32:02.598Z,97024.1
2018-09-26T15:33:05.034Z,97020.5
2018-09-26T15:34:07.711Z,97022.5
2018-09-26T15:35:10.303Z,97022.2
2018-09-26T15:36:12.621Z,97021.9
2018-09-26T15:37:14.890Z,97021.1
2018-09-26T15:38:17.268Z,97018.7
2018-09-26T15:39:19.738Z,97015.5
2018-09-26T15:40:22.281Z,97019.3
2018-09-26T15:41:24.595Z,97018.1
2018-09-26T15:42:27.303Z,97018.1
2018-09-26T15:43:29.778Z,97016.3
2018-09-26T15:44:32.209Z,97016.1
2018-09-26T15:45:34.633Z,97015.2
2018-09-26T15:46:37.058Z,97019.1
2018-09-26T15:47:39.221Z,97016
2018-09-26T15:48:42.014Z,97015.2
2018-09-26T15:49:44.165Z,97017.1
2018-09-26T15:50:46.595Z,97016.5
2018-09-26T15:51:48.753Z,97013.7
2018-09-26T15:52:51.359Z,97011.5
2018-09-26T15:53:53.810Z,97012.3
2018-09-26T15:54:56.274Z,97013.1
2018-09-26T15:55:58.171Z,97009.7
2018-09-26T15:57:00.613Z,97015.4
2018-09-26T15:58:02.812Z,97011
2018-09-26T15:59:04.982Z,97013.6
2018-09-26T16:00:07.497Z,97013.6
2018-09-26T16:01:09.939Z,97013.3
2018-09-26T16:02:12.548Z,97010.3
2018-09-26T16:03:15.042Z,97011.1
2018-09-26T16:04:17.741Z,97014.9
2018-09-26T16:05:20.362Z,97017.4